BZI weather

Balıkesir Merkez Airport
Balıkesir Province, Turkey

Public forecast

Using degrees Celsius for public forecast. Weather courtesy of forecast.io.

METAR (pilot weather report)

Retrieved 2019/09/24 06:50 UTC (1 hour ago):

LTBF 240650Z 00000KT CAVOK 18/09 Q1014 NOSIG RMK RWY18 VRB02KT

TAF (pilot weather forecast)

Forecast is more than 12 hours old.

Closest forecast is Mytilene International Airport, 70.3 nm (130.2 km) WSW. Retrieved 2012/09/21 03:06 UTC (7 years ago):

TAF LGMT 210200Z 2103/2115 VRB05KT 9999 SCT020 BECMG 2103/2105 30015KT PROB30 TEMPO 2103/2106 7000 RA SCT018 BKN030 BECMG 2107/2109 29012KT